Llanfyrnach, United Kingdom
Current Conditions -  °F | °C
As of 3:50 PM on Wednesday 26 Nov 2014 (Local Time) from EGOP Reporting Station
Few Clouds Few Clouds  
Wind Chill: 48°   Ceiling: Unl
Heat Index: 48°   Visibility: 6mi
Dew Point: 43°   Wind: 2mph
Humidity: 82%   Direction: 60°ENE
Pressure: 29.83"   Gusts: NA
Location:  51.99°N, 4.5°W
Report Text: EGOP 261550Z AUTO 06002KT 9999 // FEW039/// 09/06 Q1010
Loading
Personal Weather Stations






























Interactive Weather Map New forecast layout! Learn more

10-Day Weather Forecast

Advertisements
Track Severe Weather on mobile